Swineford, Pennsylvania
Current Conditions -  °F | °C
As of 11:09 PM on Monday 22 Dec 2014 (Local Time) from KSEG Reporting Station
Light Rain Light Rain  
Wind Chill: 33°   Ceiling: 600
Heat Index: 33°   Visibility: 2mi
Dew Point: 31°   Wind: 0mph
Humidity: 92%   Direction: NA
Pressure: 30.14"   Gusts: NA
Location:  40.7851°N, 77.0335°W
Report Text: KSEG 230409Z AUTO 00000KT 2SM -RA BR BKN006 OVC012 01/M01 A3014 RMK AO2 P0000 T00061006
Loading
Personal Weather Stations






























Interactive Weather Map New forecast layout! Learn more

10-Day Weather Forecast

Advertisements
Track Severe Weather on mobile